Terminal Aerodrome Forecast
Issued by NWS

Home | Current Version | Previous Version | Text Only | Print | Product List | Glossary On
Versions: 1 2 3 4 5 6 7 8 9 10 11 12 13 14 15 16 17 18 19
000
FTUS43 KDLH 061100
TAFBRD
TAF
KBRD 061120Z 0612/0712 14007KT P6SM VCSH BKN015 OVC035
     FM061700 13012G17KT P6SM SCT025 BKN120
     FM070100 14012KT P6SM VCSH BKN026 OVC060 WS020/17040KT
      TEMPO 0703/0707 5SM -RA BR OVC013
     FM070900 15009KT 3SM BR VCSH OVC008=

USA.gov is the U.S. government's official web portal to all federal, state and local government web resources and services.